Time,TemperatureF,DewpointF,PressureIn,WindDirection,WindDirectionDegrees,WindSpeedMPH,WindSpeedGustMPH,Humidity,HourlyPrecipIn,Conditions,Clouds,dailyrainin,SoftwareType,DateUTC
2013-07-01 00:01:00,73.0,71.0,29.90,ESE,104,0.0,3.0,93,0.00,,,0.02,,2013-07-01 04:01:00,
2013-07-01 00:11:00,72.0,70.0,29.90,NE,54,0.0,1.0,93,0.00,,,0.02,,2013-07-01 04:11:00,
2013-07-01 00:22:00,72.0,70.0,29.90,NE,54,0.0,1.0,93,0.00,,,0.02,,2013-07-01 04:22:00,
2013-07-01 00:32:00,72.0,70.0,29.90,NE,54,0.0,1.0,93,0.00,,,0.02,,2013-07-01 04:32:00,
2013-07-01 00:43:00,72.0,70.0,29.90,NE,54,0.0,1.0,93,0.00,,,0.02,,2013-07-01 04:43:00,
2013-07-01 01:02:00,72.0,70.0,29.91,East,88,0.0,-999.0,94,-99.99,,,-99.99,,2013-07-01 05:02:00,
2013-07-01 01:11:00,72.0,70.0,29.91,East,88,0.0,-999.0,94,-99.99,,,-99.99,,2013-07-01 05:11:00,
2013-07-01 01:22:00,72.0,70.0,29.91,ESE,108,0.0,1.0,94,0.00,,,0.02,,2013-07-01 05:22:00,
2013-07-01 01:33:00,72.0,70.0,29.91,ESE,115,0.0,1.0,95,0.00,,,0.02,,2013-07-01 05:33:00,
2013-07-01 01:42:00,72.0,70.0,29.91,ESE,115,0.0,1.0,95,0.00,,,0.02,,2013-07-01 05:42:00,
2013-07-01 01:52:00,72.0,70.0,29.91,ESE,119,0.0,1.0,94,0.00,,,0.02,,2013-07-01 05:52:00,
2013-07-01 02:02:00,72.0,70.0,29.90,ESE,108,0.0,1.0,94,0.00,,,0.02,,2013-07-01 06:02:00,
2013-07-01 02:12:00,72.0,70.0,29.90,ESE,108,0.0,1.0,94,0.00,,,0.02,,2013-07-01 06:12:00,
2013-07-01 02:24:00,72.0,70.0,29.90,SSW,208,0.0,1.0,94,0.00,,,0.02,,2013-07-01 06:24:00,
2013-07-01 02:33:00,72.0,70.0,29.90,West,275,0.0,0.0,95,0.00,,,0.02,,2013-07-01 06:33:00,
2013-07-01 02:43:00,72.0,70.0,29.90,West,275,0.0,0.0,95,0.00,,,0.02,,2013-07-01 06:43:00,
2013-07-01 02:53:00,72.0,70.0,29.90,SW,219,0.0,1.0,94,0.00,,,0.02,,2013-07-01 06:53:00,
2013-07-01 03:01:00,72.0,70.0,29.90,SW,219,0.0,1.0,94,0.00,,,0.02,,2013-07-01 07:01:00,
2013-07-01 03:12:00,72.0,70.0,29.90,ESE,113,0.0,1.0,94,0.00,,,0.02,,2013-07-01 07:12:00,
2013-07-01 03:22:00,72.0,70.0,29.90,ESE,105,0.0,0.0,94,0.00,,,0.02,,2013-07-01 07:22:00,
2013-07-01 03:33:00,72.0,70.0,29.90,ESE,105,0.0,0.0,94,0.00,,,0.02,,2013-07-01 07:33:00,
2013-07-01 03:43:00,72.0,70.0,29.89,ESE,107,0.0,1.0,94,0.00,,,0.02,,2013-07-01 07:43:00,
2013-07-01 03:53:00,72.0,70.0,29.89,ESE,103,0.0,1.0,94,0.00,,,0.02,,2013-07-01 07:53:00,
2013-07-01 04:01:00,72.0,70.0,29.89,ESE,103,0.0,1.0,94,0.00,,,0.02,,2013-07-01 08:01:00,
2013-07-01 04:12:00,72.0,70.0,29.89,ESE,105,0.0,0.0,95,0.00,,,0.02,,2013-07-01 08:12:00,
2013-07-01 04:22:00,72.0,70.0,29.89,ESE,122,0.0,1.0,94,0.00,,,0.02,,2013-07-01 08:22:00,
2013-07-01 04:33:00,72.0,70.0,29.89,ESE,122,0.0,1.0,94,0.00,,,0.02,,2013-07-01 08:33:00,
2013-07-01 04:43:00,72.0,70.0,29.89,ESE,117,0.0,3.0,94,0.00,,,0.02,,2013-07-01 08:43:00,
2013-07-01 04:52:00,72.0,70.0,29.90,ESE,108,0.0,1.0,95,0.00,,,0.02,,2013-07-01 08:52:00,
2013-07-01 05:02:00,72.0,70.0,29.90,ESE,108,0.0,1.0,95,0.00,,,0.02,,2013-07-01 09:02:00,
2013-07-01 05:12:00,72.0,70.0,29.90,SSE,152,0.0,0.0,95,0.00,,,0.02,,2013-07-01 09:12:00,
2013-07-01 05:22:00,72.0,70.0,29.90,ESE,120,0.0,1.0,95,0.00,,,0.02,,2013-07-01 09:22:00,
2013-07-01 05:34:00,72.0,70.0,29.90,ESE,120,0.0,1.0,95,0.00,,,0.02,,2013-07-01 09:34:00,
2013-07-01 05:43:00,72.0,70.0,29.91,ESE,116,0.0,1.0,94,0.00,,,0.02,,2013-07-01 09:43:00,
2013-07-01 05:53:00,72.0,70.0,29.91,East,100,0.0,1.0,94,0.00,,,0.02,,2013-07-01 09:53:00,
2013-07-01 06:03:00,72.0,70.0,29.91,East,100,0.0,1.0,94,0.00,,,0.02,,2013-07-01 10:03:00,
2013-07-01 06:12:00,72.0,70.0,29.91,ESE,110,0.0,2.0,94,0.00,,,0.02,,2013-07-01 10:12:00,
2013-07-01 06:22:00,72.0,70.0,29.92,ESE,120,0.0,3.0,94,0.00,,,0.02,,2013-07-01 10:22:00,
2013-07-01 06:33:00,72.0,70.0,29.92,ESE,120,0.0,3.0,94,0.00,,,0.02,,2013-07-01 10:33:00,
2013-07-01 06:43:00,72.0,70.0,29.92,ESE,107,1.0,3.0,94,0.00,,,0.02,,2013-07-01 10:43:00,
2013-07-01 06:52:00,73.0,71.0,29.92,East,86,0.0,4.0,93,0.00,,,0.02,,2013-07-01 10:52:00,
2013-07-01 07:02:00,73.0,71.0,29.92,East,86,0.0,4.0,93,0.00,,,0.02,,2013-07-01 11:02:00,
2013-07-01 07:12:00,73.0,71.0,29.92,ESE,102,0.0,3.0,93,0.00,,,0.02,,2013-07-01 11:12:00,
2013-07-01 07:22:00,73.0,71.0,29.93,ESE,111,0.0,3.0,93,0.00,,,0.02,,2013-07-01 11:22:00,
2013-07-01 07:33:00,73.0,71.0,29.93,ESE,111,0.0,3.0,93,0.00,,,0.02,,2013-07-01 11:33:00,
2013-07-01 07:43:00,73.0,71.0,29.93,ESE,105,0.0,3.0,93,0.00,,,0.02,,2013-07-01 11:43:00,
2013-07-01 07:52:00,73.0,71.0,29.93,SSW,200,1.0,3.0,93,0.00,,,0.02,,2013-07-01 11:52:00,
2013-07-01 08:01:00,73.0,71.0,29.93,SSW,200,1.0,3.0,93,0.00,,,0.02,,2013-07-01 12:01:00,
2013-07-01 08:11:00,73.0,71.0,29.93,ENE,76,1.0,4.0,93,0.00,,,0.02,,2013-07-01 12:11:00,
2013-07-01 08:22:00,74.0,72.0,29.93,SSW,205,2.0,5.0,92,0.00,,,0.02,,2013-07-01 12:22:00,
2013-07-01 08:33:00,74.0,72.0,29.93,SSW,205,2.0,5.0,92,0.00,,,0.02,,2013-07-01 12:33:00,
2013-07-01 08:43:00,74.0,72.0,29.94,ESE,103,0.0,4.0,92,0.00,,,0.02,,2013-07-01 12:43:00,
2013-07-01 08:53:00,74.0,72.0,29.94,WSW,244,1.0,3.0,92,0.00,,,0.02,,2013-07-01 12:53:00,
2013-07-01 09:02:00,74.0,72.0,29.94,WSW,244,1.0,3.0,92,0.00,,,0.02,,2013-07-01 13:02:00,
2013-07-01 09:12:00,75.0,72.0,29.94,SE,141,0.0,1.0,91,0.00,,,0.02,,2013-07-01 13:12:00,
2013-07-01 09:23:00,75.0,72.0,29.94,SE,141,0.0,1.0,91,0.00,,,0.02,,2013-07-01 13:23:00,
2013-07-01 09:33:00,75.0,72.0,29.94,ESE,117,0.0,1.0,91,0.00,,,0.02,,2013-07-01 13:33:00,
2013-07-01 09:53:00,74.0,72.0,29.94,NE,53,0.0,1.0,93,0.00,,,0.02,,2013-07-01 13:53:00,
2013-07-01 10:01:00,74.0,72.0,29.93,North,358,1.0,3.0,95,0.03,,,0.05,,2013-07-01 14:01:00,
2013-07-01 10:34:00,71.0,69.0,29.94,NNE,23,4.0,9.0,95,0.60,,,0.62,,2013-07-01 14:34:00,
2013-07-01 10:43:00,70.0,69.0,29.95,WSW,255,2.0,11.0,97,0.75,,,0.77,,2013-07-01 14:43:00,
2013-07-01 10:53:00,70.0,69.0,29.95,WSW,255,2.0,11.0,97,0.75,,,0.77,,2013-07-01 14:53:00,
2013-07-01 11:02:00,70.0,69.0,29.95,North,359,1.0,4.0,97,0.82,,,0.88,,2013-07-01 15:02:00,
2013-07-01 11:34:00,70.0,69.0,29.96,WSW,257,1.0,2.0,97,0.34,,,0.97,,2013-07-01 15:34:00,
2013-07-01 11:43:00,70.0,69.0,29.96,WSW,255,0.0,3.0,97,0.21,,,0.98,,2013-07-01 15:43:00,
2013-07-01 11:52:00,70.0,69.0,29.96,WSW,255,0.0,3.0,97,0.21,,,0.98,,2013-07-01 15:52:00,
2013-07-01 12:01:00,71.0,70.0,29.96,SSW,208,0.0,1.0,97,0.09,,,0.99,,2013-07-01 16:01:00,
2013-07-01 12:11:00,72.0,71.0,29.96,North,8,0.0,2.0,98,0.04,,,1.00,,2013-07-01 16:11:00,
2013-07-01 12:22:00,73.0,72.0,29.97,West,259,0.0,3.0,97,0.03,,,1.00,,2013-07-01 16:22:00,
2013-07-01 12:33:00,73.0,72.0,29.97,West,259,0.0,3.0,97,0.03,,,1.00,,2013-07-01 16:33:00,
2013-07-01 12:44:00,73.0,71.0,29.97,ESE,119,0.0,1.0,95,0.02,,,1.00,,2013-07-01 16:44:00,
2013-07-01 12:53:00,74.0,72.0,29.97,SSE,162,0.0,3.0,94,0.01,,,1.00,,2013-07-01 16:53:00,
2013-07-01 13:02:00,74.0,72.0,29.97,SSE,162,0.0,3.0,94,0.01,,,1.00,,2013-07-01 17:02:00,
2013-07-01 13:23:00,74.0,72.0,29.97,SW,226,1.0,5.0,95,0.00,,,1.00,,2013-07-01 17:23:00,
2013-07-01 13:34:00,74.0,72.0,29.97,ESE,120,0.0,3.0,94,0.00,,,1.00,,2013-07-01 17:34:00,
2013-07-01 13:43:00,74.0,72.0,29.97,SW,222,0.0,5.0,95,0.01,,,1.01,,2013-07-01 17:43:00,
2013-07-01 13:53:00,74.0,73.0,29.97,NE,50,0.0,1.0,96,0.01,,,1.01,,2013-07-01 17:53:00,
2013-07-01 14:02:00,74.0,73.0,29.97,NE,50,0.0,1.0,96,0.01,,,1.01,,2013-07-01 18:02:00,
2013-07-01 14:11:00,74.0,72.0,29.97,SE,129,2.0,3.0,95,0.01,,,1.01,,2013-07-01 18:11:00,
2013-07-01 14:33:00,74.0,72.0,29.97,SE,131,0.0,2.0,95,0.01,,,1.01,,2013-07-01 18:33:00,
2013-07-01 14:44:00,74.0,73.0,29.96,ESE,103,0.0,2.0,96,0.01,,,1.02,,2013-07-01 18:44:00,
2013-07-01 14:53:00,74.0,73.0,29.97,SSE,162,0.0,2.0,97,0.01,,,1.02,,2013-07-01 18:53:00,
2013-07-01 15:11:00,74.0,73.0,29.97,East,85,1.0,5.0,97,0.03,,,1.04,,2013-07-01 19:11:00,
2013-07-01 15:33:00,74.0,73.0,29.97,ENE,65,0.0,7.0,97,0.07,,,1.08,,2013-07-01 19:33:00,
2013-07-01 15:44:00,74.0,73.0,29.96,East,91,1.0,4.0,97,0.07,,,1.09,,2013-07-01 19:44:00,
2013-07-01 15:52:00,74.0,73.0,29.96,East,91,1.0,4.0,97,0.07,,,1.09,,2013-07-01 19:52:00,
2013-07-01 16:02:00,74.0,73.0,29.96,ESE,103,0.0,5.0,97,0.08,,,1.10,,2013-07-01 20:02:00,
2013-07-01 16:11:00,74.0,73.0,29.96,SSW,213,0.0,3.0,97,0.06,,,1.10,,2013-07-01 20:11:00,
2013-07-01 16:34:00,74.0,73.0,29.96,SE,130,0.0,3.0,96,0.02,,,1.09,,2013-07-01 20:34:00,
2013-07-01 16:43:00,74.0,73.0,29.96,ESE,117,1.0,5.0,97,0.00,,,1.09,,2013-07-01 20:43:00,
2013-07-01 16:52:00,74.0,73.0,29.96,ESE,117,1.0,5.0,97,0.00,,,1.09,,2013-07-01 20:52:00,
2013-07-01 17:02:00,74.0,73.0,29.96,ENE,78,0.0,3.0,97,0.00,,,1.09,,2013-07-01 21:02:00,
2013-07-01 17:11:00,74.0,73.0,29.95,ESE,107,3.0,5.0,97,0.01,,,1.10,,2013-07-01 21:11:00,
2013-07-01 17:24:00,74.0,73.0,29.96,WSW,247,1.0,11.0,97,0.01,,,1.10,,2013-07-01 21:24:00,
2013-07-01 17:34:00,74.0,73.0,29.96,WSW,247,1.0,11.0,97,0.01,,,1.10,,2013-07-01 21:34:00,
2013-07-01 17:43:00,74.0,73.0,29.96,SE,129,2.0,5.0,96,0.01,,,1.10,,2013-07-01 21:43:00,
2013-07-01 17:53:00,74.0,73.0,29.96,SE,129,2.0,5.0,96,0.01,,,1.10,,2013-07-01 21:53:00,
2013-07-01 18:01:00,74.0,73.0,29.96,SW,224,0.0,8.0,97,0.01,,,1.10,,2013-07-01 22:01:00,
2013-07-01 18:12:00,74.0,73.0,29.96,SE,126,1.0,7.0,97,0.00,,,1.10,,2013-07-01 22:12:00,
2013-07-01 18:24:00,74.0,73.0,29.96,SE,126,1.0,7.0,97,0.00,,,1.10,,2013-07-01 22:24:00,
2013-07-01 18:33:00,74.0,73.0,29.96,East,93,1.0,8.0,97,0.00,,,1.10,,2013-07-01 22:33:00,
2013-07-01 18:43:00,75.0,74.0,29.96,SE,137,2.0,5.0,96,0.00,,,1.10,,2013-07-01 22:43:00,
2013-07-01 18:53:00,75.0,74.0,29.96,SE,137,2.0,5.0,96,0.00,,,1.10,,2013-07-01 22:53:00,
2013-07-01 19:01:00,75.0,73.0,29.97,East,93,1.0,7.0,94,0.00,,,1.10,,2013-07-01 23:01:00,
2013-07-01 19:33:00,75.0,73.0,29.98,ESE,115,0.0,5.0,95,0.00,,,1.10,,2013-07-01 23:33:00,
2013-07-01 19:44:00,74.0,72.0,29.98,ESE,115,1.0,5.0,95,0.00,,,1.10,,2013-07-01 23:44:00,
2013-07-01 19:53:00,74.0,72.0,29.99,ENE,78,1.0,6.0,95,0.00,,,1.10,,2013-07-01 23:53:00,
2013-07-01 20:01:00,74.0,72.0,29.99,ENE,78,1.0,6.0,95,0.00,,,1.10,,2013-07-02 00:01:00,
2013-07-01 20:22:00,74.0,73.0,30.00,East,91,1.0,5.0,96,0.00,,,1.10,,2013-07-02 00:22:00,
2013-07-01 20:34:00,74.0,73.0,30.00,East,91,1.0,5.0,96,0.00,,,1.10,,2013-07-02 00:34:00,
2013-07-01 20:43:00,74.0,73.0,30.01,ESE,107,1.0,4.0,96,0.00,,,1.10,,2013-07-02 00:43:00,
2013-07-01 20:53:00,73.0,72.0,30.01,ESE,105,1.0,5.0,96,0.00,,,1.10,,2013-07-02 00:53:00,
2013-07-01 21:01:00,73.0,72.0,30.01,ESE,105,1.0,5.0,96,0.00,,,1.10,,2013-07-02 01:01:00,
2013-07-01 21:33:00,73.0,72.0,30.01,SSE,150,0.0,3.0,97,0.00,,,1.09,,2013-07-02 01:33:00,
2013-07-01 21:43:00,73.0,72.0,30.01,ESE,103,0.0,5.0,97,0.00,,,1.09,,2013-07-02 01:43:00,
2013-07-01 21:53:00,73.0,72.0,30.01,ESE,103,0.0,5.0,97,0.00,,,1.09,,2013-07-02 01:53:00,
2013-07-01 22:02:00,73.0,72.0,30.02,ESE,105,0.0,6.0,97,0.00,,,1.09,,2013-07-02 02:02:00,
2013-07-01 22:34:00,73.0,72.0,30.02,ESE,118,0.0,6.0,97,0.00,,,1.09,,2013-07-02 02:34:00,
2013-07-01 22:43:00,73.0,72.0,30.03,South,191,0.0,3.0,97,0.00,,,1.09,,2013-07-02 02:43:00,
2013-07-01 22:53:00,73.0,72.0,30.03,South,191,0.0,3.0,97,0.00,,,1.09,,2013-07-02 02:53:00,
2013-07-01 23:02:00,73.0,72.0,30.03,SSW,195,1.0,5.0,97,0.00,,,1.09,,2013-07-02 03:02:00,
2013-07-01 23:32:00,73.0,72.0,30.03,ESE,107,0.0,2.0,97,0.00,,,1.09,,2013-07-02 03:32:00,
2013-07-01 23:43:00,73.0,72.0,30.03,SW,222,0.0,3.0,97,0.00,,,1.09,,2013-07-02 03:43:00,
2013-07-01 23:53:00,73.0,72.0,30.03,SW,222,0.0,3.0,97,0.00,,,1.09,,2013-07-02 03:53:00,